createdAt,value
2019-05-07T00:00:38.020Z,1013.82
2019-05-07T00:02:32.132Z,1013.81
2019-05-07T00:03:32.859Z,1013.79
2019-05-07T00:05:23.839Z,1013.75
2019-05-07T00:06:23.842Z,1013.74
2019-05-07T00:08:16.743Z,1013.77
2019-05-07T00:09:16.752Z,1013.75
2019-05-07T00:11:09.659Z,1013.72
2019-05-07T00:12:09.663Z,1013.75
2019-05-07T00:14:03.127Z,1013.74
2019-05-07T00:15:04.610Z,1013.75
2019-05-07T00:16:55.478Z,1013.74
2019-05-07T00:17:55.483Z,1013.72
2019-05-07T00:19:48.384Z,1013.73
2019-05-07T00:20:48.394Z,1013.74
2019-05-07T00:22:42.020Z,1013.73
2019-05-07T00:23:43.297Z,1013.70
2019-05-07T00:25:34.210Z,1013.73
2019-05-07T00:26:34.213Z,1013.75
2019-05-07T00:28:27.117Z,1013.76
2019-05-07T00:29:27.126Z,1013.74
2019-05-07T00:31:20.039Z,1013.78
2019-05-07T00:32:22.080Z,1013.78
2019-05-07T00:34:12.942Z,1013.80
2019-05-07T00:35:13.142Z,1013.79
2019-05-07T00:37:07.074Z,1013.75
2019-05-07T00:38:05.861Z,1013.74
2019-05-07T00:39:58.766Z,1013.77
2019-05-07T00:40:58.771Z,1013.75
2019-05-07T00:42:53.012Z,1013.77
2019-05-07T00:43:52.488Z,1013.78
2019-05-07T00:45:44.590Z,1013.78
2019-05-07T00:46:44.591Z,1013.75
2019-05-07T00:48:37.494Z,1013.74
2019-05-07T00:49:37.501Z,1013.75
2019-05-07T00:51:30.412Z,1013.73
2019-05-07T00:52:30.410Z,1013.71
2019-05-07T00:54:23.313Z,1013.70
2019-05-07T00:55:23.320Z,1013.71
2019-05-07T00:57:16.228Z,1013.70
2019-05-07T00:58:16.231Z,1013.70
2019-05-07T01:00:09.134Z,1013.69
2019-05-07T01:01:09.145Z,1013.69
2019-05-07T01:03:03.067Z,1013.68
2019-05-07T01:04:02.631Z,1013.68
2019-05-07T01:05:54.958Z,1013.67
2019-05-07T01:06:54.966Z,1013.61
2019-05-07T01:08:47.861Z,1013.68
2019-05-07T01:09:47.876Z,1013.67
2019-05-07T01:11:42.907Z,1013.66
2019-05-07T01:12:42.299Z,1013.68
2019-05-07T01:14:33.688Z,1013.67
2019-05-07T01:15:34.737Z,1013.64
2019-05-07T01:17:26.601Z,1013.61
2019-05-07T01:18:26.598Z,1013.63
2019-05-07T01:20:19.494Z,1013.67
2019-05-07T01:21:19.512Z,1013.67
2019-05-07T01:23:13.389Z,1013.68
2019-05-07T01:24:12.450Z,1013.66
2019-05-07T01:26:05.321Z,1013.62
2019-05-07T01:27:05.324Z,1013.64
2019-05-07T01:28:58.225Z,1013.62
2019-05-07T01:29:58.234Z,1013.63
2019-05-07T01:31:52.532Z,1013.63
2019-05-07T01:32:53.168Z,1013.65
2019-05-07T01:34:44.045Z,1013.64
2019-05-07T01:35:44.051Z,1013.61
2019-05-07T01:37:36.967Z,1013.67
2019-05-07T01:38:36.961Z,1013.64
2019-05-07T01:40:29.860Z,1013.66
2019-05-07T01:41:29.868Z,1013.66
2019-05-07T01:43:22.946Z,1013.67
2019-05-07T01:44:22.778Z,1013.65
2019-05-07T01:46:15.684Z,1013.68
2019-05-07T01:47:15.691Z,1013.69
2019-05-07T01:49:08.588Z,1013.67
2019-05-07T01:50:08.594Z,1013.65
2019-05-07T01:52:02.510Z,1013.62
2019-05-07T01:53:03.758Z,1013.65
2019-05-07T01:54:54.406Z,1013.62
2019-05-07T01:55:54.413Z,1013.63
2019-05-07T01:57:47.323Z,1013.64
2019-05-07T01:58:47.333Z,1013.64
2019-05-07T02:00:42.223Z,1013.65
2019-05-07T02:01:42.729Z,1013.64
2019-05-07T02:03:33.140Z,1013.65
2019-05-07T02:04:33.143Z,1013.62
2019-05-07T02:06:26.049Z,1013.59
2019-05-07T02:07:26.054Z,1013.57
2019-05-07T02:09:18.956Z,1013.56
2019-05-07T02:10:18.963Z,1013.60
2019-05-07T02:12:13.200Z,1013.66
2019-05-07T02:13:12.615Z,1013.62
2019-05-07T02:15:04.774Z,1013.67
2019-05-07T02:16:04.787Z,1013.65
2019-05-07T02:17:57.696Z,1013.68
2019-05-07T02:18:57.699Z,1013.67
2019-05-07T02:20:52.106Z,1013.66
2019-05-07T02:21:52.740Z,1013.66
2019-05-07T02:23:43.515Z,1013.69
2019-05-07T02:24:43.570Z,1013.66
2019-05-07T02:26:36.422Z,1013.69
2019-05-07T02:27:36.424Z,1013.70
2019-05-07T02:29:29.325Z,1013.69
2019-05-07T02:30:29.334Z,1013.69
2019-05-07T02:32:24.092Z,1013.67
2019-05-07T02:33:22.964Z,1013.73
2019-05-07T02:35:15.142Z,1013.72
2019-05-07T02:36:15.149Z,1013.69
2019-05-07T02:38:08.057Z,1013.70
2019-05-07T02:39:08.059Z,1013.68
2019-05-07T02:41:02.883Z,1013.64
2019-05-07T02:42:03.496Z,1013.67
2019-05-07T02:43:54.008Z,1013.69
2019-05-07T02:44:53.879Z,1013.69
2019-05-07T02:46:46.783Z,1013.69
2019-05-07T02:47:46.797Z,1013.72
2019-05-07T02:49:39.685Z,1013.74
2019-05-07T02:50:39.693Z,1013.75
2019-05-07T02:52:32.601Z,1013.75
2019-05-07T02:53:33.679Z,1013.75
2019-05-07T02:55:25.503Z,1013.74
2019-05-07T02:56:25.510Z,1013.74
2019-05-07T02:58:18.414Z,1013.77
2019-05-07T02:59:18.419Z,1013.74
2019-05-07T03:01:13.830Z,1013.77
2019-05-07T03:02:13.706Z,1013.75
2019-05-07T03:04:04.233Z,1013.76
2019-05-07T03:05:05.157Z,1013.79
2019-05-07T03:06:57.142Z,1013.77
2019-05-07T03:07:57.145Z,1013.75
2019-05-07T03:09:50.044Z,1013.75
2019-05-07T03:10:52.484Z,1013.76
2019-05-07T03:12:43.250Z,1013.72
2019-05-07T03:13:43.333Z,1013.72
2019-05-07T03:15:35.863Z,1013.71
2019-05-07T03:16:43.706Z,1013.70
2019-05-07T03:18:28.789Z,1013.71
2019-05-07T03:19:28.783Z,1013.72
2019-05-07T03:21:23.501Z,1013.70
2019-05-07T03:22:23.159Z,1013.67
2019-05-07T03:24:14.594Z,1013.72
2019-05-07T03:25:14.604Z,1013.74
2019-05-07T03:27:07.542Z,1013.71
2019-05-07T03:28:07.505Z,1013.71
2019-05-07T03:30:04.256Z,1013.69
2019-05-07T03:31:05.247Z,1013.74
2019-05-07T03:32:56.067Z,1013.70
2019-05-07T03:33:55.853Z,1013.72
2019-05-07T03:35:47.351Z,1013.74
2019-05-07T03:36:48.219Z,1013.71
2019-05-07T03:38:39.151Z,1013.73
2019-05-07T03:39:39.141Z,1013.74
2019-05-07T03:41:33.316Z,1013.77
2019-05-07T03:42:33.528Z,1013.75
2019-05-07T03:44:24.967Z,1013.73
2019-05-07T03:45:24.957Z,1013.72
2019-05-07T03:47:17.878Z,1013.74
2019-05-07T03:48:17.866Z,1013.75
2019-05-07T03:50:14.267Z,1013.76
2019-05-07T03:51:13.206Z,1013.77
2019-05-07T03:53:03.687Z,1013.73
2019-05-07T03:54:03.688Z,1013.73
2019-05-07T03:55:56.585Z,1013.76
2019-05-07T03:56:56.604Z,1013.74
2019-05-07T03:58:52.668Z,1013.77
2019-05-07T03:59:53.012Z,1013.79
2019-05-07T04:01:43.057Z,1013.73
2019-05-07T04:02:43.837Z,1013.75
2019-05-07T04:04:35.322Z,1013.74
2019-05-07T04:05:35.325Z,1013.76
2019-05-07T04:07:28.253Z,1013.78
2019-05-07T04:08:28.237Z,1013.76
2019-05-07T04:10:23.175Z,1013.81
2019-05-07T04:11:23.055Z,1013.80
2019-05-07T04:13:14.063Z,1013.75
2019-05-07T04:14:14.063Z,1013.77
2019-05-07T04:16:06.961Z,1013.76
2019-05-07T04:17:21.858Z,1013.77
2019-05-07T04:18:59.871Z,1013.75
2019-05-07T04:19:59.873Z,1013.78
2019-05-07T04:21:53.543Z,1013.78
2019-05-07T04:22:53.547Z,1013.79
2019-05-07T04:24:45.712Z,1013.80
2019-05-07T04:25:45.694Z,1013.84
2019-05-07T04:27:38.597Z,1013.84
2019-05-07T04:28:38.606Z,1013.89
2019-05-07T04:30:33.098Z,1013.88
2019-05-07T04:31:34.295Z,1013.89
2019-05-07T04:33:24.427Z,1013.89
2019-05-07T04:34:24.437Z,1013.88
2019-05-07T04:36:17.331Z,1013.88
2019-05-07T04:37:17.350Z,1013.90
2019-05-07T04:39:12.958Z,1013.91
2019-05-07T04:40:10.254Z,1013.92
2019-05-07T04:42:03.606Z,1013.94
2019-05-07T04:43:03.190Z,1013.94
2019-05-07T04:44:56.096Z,1013.94
2019-05-07T04:45:56.085Z,1013.93
2019-05-07T04:47:48.985Z,1013.95
2019-05-07T04:48:48.989Z,1013.96
2019-05-07T04:50:44.416Z,1013.92
2019-05-07T04:51:43.437Z,1013.95
2019-05-07T04:53:34.811Z,1013.93
2019-05-07T04:54:34.816Z,1013.91
2019-05-07T04:56:27.716Z,1013.92
2019-05-07T04:57:27.726Z,1013.89
2019-05-07T04:59:23.492Z,1013.91
2019-05-07T05:00:22.966Z,1013.88
2019-05-07T05:02:13.745Z,1013.89
2019-05-07T05:03:13.550Z,1013.86
2019-05-07T05:05:06.459Z,1013.87
2019-05-07T05:06:06.462Z,1013.88
2019-05-07T05:07:59.366Z,1013.93
2019-05-07T05:08:59.426Z,1013.93
2019-05-07T05:10:53.838Z,1013.92
2019-05-07T05:11:53.078Z,1013.95
2019-05-07T05:13:45.219Z,1013.96
2019-05-07T05:14:45.219Z,1013.93
2019-05-07T05:16:38.119Z,1013.92
2019-05-07T05:17:48.080Z,1013.95
2019-05-07T05:19:32.309Z,1013.94
2019-05-07T05:20:31.043Z,1013.94
2019-05-07T05:22:23.949Z,1013.93
2019-05-07T05:23:23.958Z,1013.94
2019-05-07T05:25:16.864Z,1013.97
2019-05-07T05:26:16.871Z,1013.98
2019-05-07T05:28:09.774Z,1013.99
2019-05-07T05:29:11.982Z,1013.98
2019-05-07T05:31:03.421Z,1013.95
2019-05-07T05:32:02.701Z,1013.93
2019-05-07T05:33:55.610Z,1013.96
2019-05-07T05:34:55.614Z,1013.96
2019-05-07T05:36:48.519Z,1013.97
2019-05-07T05:37:48.529Z,1013.97
2019-05-07T05:39:42.668Z,1014.01
2019-05-07T05:40:42.697Z,1013.96
2019-05-07T05:42:34.352Z,1014.01
2019-05-07T05:43:34.357Z,1014.06
2019-05-07T05:45:27.284Z,1014.03
2019-05-07T05:46:27.275Z,1014.03
2019-05-07T05:48:22.225Z,1014.01
2019-05-07T05:49:20.191Z,1014.03
2019-05-07T05:51:13.596Z,1014.04
2019-05-07T05:52:13.602Z,1014.03
2019-05-07T05:54:06.539Z,1014.03
2019-05-07T05:55:06.520Z,1014.01
2019-05-07T05:56:59.426Z,1013.99
2019-05-07T05:57:59.436Z,1014.01
2019-05-07T05:59:55.216Z,1014.01
2019-05-07T06:00:53.006Z,1014.05
2019-05-07T06:02:45.262Z,1013.97
2019-05-07T06:03:45.275Z,1014.00
2019-05-07T06:05:38.188Z,1014.02
2019-05-07T06:06:38.194Z,1013.99
2019-05-07T06:08:32.469Z,1013.97
2019-05-07T06:09:32.782Z,1013.96
2019-05-07T06:11:24.026Z,1013.95
2019-05-07T06:12:24.035Z,1013.99
2019-05-07T06:14:16.945Z,1013.99
2019-05-07T06:15:16.951Z,1014.02
2019-05-07T06:17:09.865Z,1014.02
2019-05-07T06:18:20.485Z,1014.03
2019-05-07T06:20:03.099Z,1014.03
2019-05-07T06:21:03.036Z,1014.06
2019-05-07T06:22:55.707Z,1014.06
2019-05-07T06:23:55.722Z,1014.09
2019-05-07T06:25:48.661Z,1014.08
2019-05-07T06:26:48.642Z,1014.08
2019-05-07T06:28:42.552Z,1014.06
2019-05-07T06:29:42.592Z,1014.05
2019-05-07T06:31:34.483Z,1014.07
2019-05-07T06:32:34.490Z,1014.07
2019-05-07T06:34:27.404Z,1014.07
2019-05-07T06:35:27.410Z,1014.06
2019-05-07T06:37:22.655Z,1014.06
2019-05-07T06:38:22.005Z,1014.06
2019-05-07T06:40:13.251Z,1014.04
2019-05-07T06:41:13.254Z,1014.04
2019-05-07T06:43:06.164Z,1014.03
2019-05-07T06:44:06.175Z,1014.07
2019-05-07T06:45:59.098Z,1014.05
2019-05-07T06:46:59.106Z,1014.04
2019-05-07T06:48:52.701Z,1014.07
2019-05-07T06:49:52.378Z,1014.09
2019-05-07T06:51:47.699Z,1014.10
2019-05-07T06:52:44.945Z,1014.10
2019-05-07T06:54:38.035Z,1014.16
2019-05-07T06:55:37.872Z,1014.10
2019-05-07T06:57:32.843Z,1014.13
2019-05-07T06:58:32.667Z,1014.08
2019-05-07T07:00:23.722Z,1014.07
2019-05-07T07:01:23.729Z,1014.08
2019-05-07T07:03:16.651Z,1014.10
2019-05-07T07:04:16.670Z,1014.04
2019-05-07T07:06:09.585Z,1014.04
2019-05-07T07:07:24.015Z,1014.05
2019-05-07T07:09:02.511Z,1014.07
2019-05-07T07:10:02.809Z,1014.03
2019-05-07T07:11:55.445Z,1014.03
2019-05-07T07:12:55.452Z,1014.01
2019-05-07T07:14:48.374Z,1014.00
2019-05-07T07:15:48.383Z,1014.00
2019-05-07T07:17:41.903Z,1014.01
2019-05-07T07:18:49.530Z,1014.02
2019-05-07T07:20:34.226Z,1014.04
2019-05-07T07:21:34.234Z,1014.00
2019-05-07T07:23:27.153Z,1014.00
2019-05-07T07:24:27.159Z,1014.03
2019-05-07T07:26:22.132Z,1014.01
2019-05-07T07:27:22.555Z,1014.02
2019-05-07T07:29:13.019Z,1014.04
2019-05-07T07:30:13.034Z,1014.04
2019-05-07T07:32:05.960Z,1014.02
2019-05-07T07:33:05.960Z,1013.99
2019-05-07T07:34:58.876Z,1013.99
2019-05-07T07:35:58.886Z,1014.00
2019-05-07T07:37:53.081Z,1013.96
2019-05-07T07:38:52.725Z,1013.98
2019-05-07T07:40:44.730Z,1013.95
2019-05-07T07:41:44.737Z,1013.94
2019-05-07T07:43:37.650Z,1013.90
2019-05-07T07:44:37.661Z,1013.91
2019-05-07T07:46:32.821Z,1013.91
2019-05-07T07:47:32.749Z,1013.87
2019-05-07T07:49:23.502Z,1013.84
2019-05-07T07:50:23.520Z,1013.85
2019-05-07T07:52:16.433Z,1013.88
2019-05-07T07:53:16.441Z,1013.87
2019-05-07T07:55:09.352Z,1013.87
2019-05-07T07:56:09.366Z,1013.91
2019-05-07T07:58:02.720Z,1013.90
2019-05-07T07:59:02.293Z,1013.86
2019-05-07T08:00:55.707Z,1013.86
2019-05-07T08:01:55.719Z,1013.85
2019-05-07T08:03:48.630Z,1013.84
2019-05-07T08:04:48.648Z,1013.83
2019-05-07T08:06:42.157Z,1013.79
2019-05-07T08:07:42.591Z,1013.85
2019-05-07T08:09:34.503Z,1013.85
2019-05-07T08:10:34.506Z,1013.86
2019-05-07T08:12:27.424Z,1013.86
2019-05-07T08:13:27.433Z,1013.84
2019-05-07T08:15:23.671Z,1013.82
2019-05-07T08:16:22.267Z,1013.82
2019-05-07T08:18:13.308Z,1013.78
2019-05-07T08:19:21.582Z,1013.77
2019-05-07T08:21:07.963Z,1013.76
2019-05-07T08:22:06.216Z,1013.75
2019-05-07T08:23:59.130Z,1013.72
2019-05-07T08:24:59.143Z,1013.70
2019-05-07T08:26:52.064Z,1013.69
2019-05-07T08:27:52.474Z,1013.67
2019-05-07T08:29:44.984Z,1013.68
2019-05-07T08:30:44.998Z,1013.61
2019-05-07T08:32:37.917Z,1013.60
2019-05-07T08:33:37.924Z,1013.55
2019-05-07T08:35:32.691Z,1013.58
2019-05-07T08:36:33.016Z,1013.61
2019-05-07T08:38:23.773Z,1013.59
2019-05-07T08:39:25.196Z,1013.57
2019-05-07T08:41:16.703Z,1013.54
2019-05-07T08:42:16.703Z,1013.54
2019-05-07T08:44:14.626Z,1013.53
2019-05-07T08:45:11.856Z,1013.58
2019-05-07T08:47:02.784Z,1013.57
2019-05-07T08:48:02.552Z,1013.58
2019-05-07T08:49:55.467Z,1013.60
2019-05-07T08:50:55.481Z,1013.59
2019-05-07T08:52:48.400Z,1013.64
2019-05-07T08:53:48.407Z,1013.58
2019-05-07T08:55:42.462Z,1013.57
2019-05-07T08:56:42.495Z,1013.57
2019-05-07T08:58:34.254Z,1013.55
2019-05-07T08:59:34.280Z,1013.55
2019-05-07T09:01:27.186Z,1013.56
2019-05-07T09:02:27.196Z,1013.57
2019-05-07T09:04:21.981Z,1013.54
2019-05-07T09:05:21.970Z,1013.54
2019-05-07T09:07:13.266Z,1013.53
2019-05-07T09:08:13.051Z,1013.53
2019-05-07T09:10:05.975Z,1013.50
2019-05-07T09:11:05.985Z,1013.48
2019-05-07T09:12:58.904Z,1013.52
2019-05-07T09:13:58.911Z,1013.50
2019-05-07T09:15:52.844Z,1013.51
2019-05-07T09:16:52.741Z,1013.51
2019-05-07T09:18:44.762Z,1013.47
2019-05-07T09:19:51.567Z,1013.46
2019-05-07T09:21:37.697Z,1013.47
2019-05-07T09:22:37.703Z,1013.46
2019-05-07T09:24:32.941Z,1013.41
2019-05-07T09:25:32.474Z,1013.41
2019-05-07T09:27:23.556Z,1013.41
2019-05-07T09:28:23.565Z,1013.42
2019-05-07T09:30:16.481Z,1013.41
2019-05-07T09:31:16.495Z,1013.36
2019-05-07T09:33:09.416Z,1013.35
2019-05-07T09:34:09.426Z,1013.36
2019-05-07T09:36:02.418Z,1013.36
2019-05-07T09:37:02.486Z,1013.34
2019-05-07T09:38:58.876Z,1013.34
2019-05-07T09:39:55.288Z,1013.33
2019-05-07T09:41:48.215Z,1013.34
2019-05-07T09:42:48.217Z,1013.27
2019-05-07T09:44:42.462Z,1013.28
2019-05-07T09:45:42.101Z,1013.31
2019-05-07T09:47:34.069Z,1013.27
2019-05-07T09:48:34.077Z,1013.22
2019-05-07T09:50:26.993Z,1013.25
2019-05-07T09:51:27.009Z,1013.25
2019-05-07T09:53:19.930Z,1013.25
2019-05-07T09:54:19.940Z,1013.27
2019-05-07T09:56:12.859Z,1013.27
2019-05-07T09:57:27.347Z,1013.27
2019-05-07T09:59:05.798Z,1013.27
2019-05-07T10:00:05.798Z,1013.30
2019-05-07T10:01:58.727Z,1013.29
2019-05-07T10:02:58.730Z,1013.27
2019-05-07T10:04:52.698Z,1013.25
2019-05-07T10:05:51.901Z,1013.25
2019-05-07T10:07:44.586Z,1013.27
2019-05-07T10:08:44.595Z,1013.23
2019-05-07T10:10:37.510Z,1013.23
2019-05-07T10:11:37.525Z,1013.26
2019-05-07T10:13:30.447Z,1013.25
2019-05-07T10:14:30.457Z,1013.26
2019-05-07T10:16:23.374Z,1013.26
2019-05-07T10:17:23.392Z,1013.24
2019-05-07T10:19:16.312Z,1013.23
2019-05-07T10:20:22.511Z,1013.23
2019-05-07T10:22:09.261Z,1013.20
2019-05-07T10:23:09.251Z,1013.18
2019-05-07T10:25:02.818Z,1013.16
2019-05-07T10:26:02.180Z,1013.17
2019-05-07T10:27:55.103Z,1013.15
2019-05-07T10:28:55.117Z,1013.15
2019-05-07T10:30:48.030Z,1013.18
2019-05-07T10:31:48.043Z,1013.16
2019-05-07T10:33:42.223Z,1013.15
2019-05-07T10:34:42.214Z,1013.17
2019-05-07T10:36:33.897Z,1013.17
2019-05-07T10:37:33.901Z,1013.11
2019-05-07T10:39:26.822Z,1013.11
2019-05-07T10:40:26.829Z,1013.10
2019-05-07T10:42:19.781Z,1013.11
2019-05-07T10:43:22.045Z,1013.06
2019-05-07T10:45:13.085Z,1013.04
2019-05-07T10:46:12.922Z,1013.05
2019-05-07T10:48:05.614Z,1013.03
2019-05-07T10:49:05.621Z,1013.05
2019-05-07T10:50:58.542Z,1013.04
2019-05-07T10:51:58.556Z,1013.03
2019-05-07T10:53:51.863Z,1012.95
2019-05-07T10:54:59.722Z,1012.97
2019-05-07T10:56:44.403Z,1013.00
2019-05-07T10:57:44.418Z,1013.00
2019-05-07T10:59:37.340Z,1012.99
2019-05-07T11:00:37.350Z,1012.94
2019-05-07T11:02:32.323Z,1012.91
2019-05-07T11:03:32.184Z,1012.92
2019-05-07T11:05:23.201Z,1012.89
2019-05-07T11:06:23.214Z,1012.89
2019-05-07T11:08:16.137Z,1012.85
2019-05-07T11:09:16.146Z,1012.83
2019-05-07T11:11:09.070Z,1012.79
2019-05-07T11:12:09.079Z,1012.79
2019-05-07T11:14:02.047Z,1012.76
2019-05-07T11:15:02.265Z,1012.78
2019-05-07T11:16:54.952Z,1012.74
2019-05-07T11:17:54.945Z,1012.74
2019-05-07T11:19:47.867Z,1012.71
2019-05-07T11:20:50.435Z,1012.71
2019-05-07T11:22:42.756Z,1012.69
2019-05-07T11:23:41.893Z,1012.67
2019-05-07T11:25:33.732Z,1012.63
2019-05-07T11:26:33.741Z,1012.60
2019-05-07T11:28:26.667Z,1012.59
2019-05-07T11:29:26.676Z,1012.55
2019-05-07T11:31:19.593Z,1012.49
2019-05-07T11:32:21.544Z,1012.49
2019-05-07T11:34:13.851Z,1012.44
2019-05-07T11:35:14.694Z,1012.42
2019-05-07T11:37:05.465Z,1012.39
2019-05-07T11:38:17.818Z,1012.40
2019-05-07T11:39:58.402Z,1012.38
2019-05-07T11:40:58.412Z,1012.35
2019-05-07T11:42:51.965Z,1012.36
2019-05-07T11:43:53.867Z,1012.33
2019-05-07T11:45:44.271Z,1012.37
2019-05-07T11:46:44.459Z,1012.32
2019-05-07T11:48:37.204Z,1012.33
2019-05-07T11:49:37.216Z,1012.35
2019-05-07T11:51:30.132Z,1012.31
2019-05-07T11:52:32.902Z,1012.29
2019-05-07T11:54:23.077Z,1012.28
2019-05-07T11:55:23.092Z,1012.28
2019-05-07T11:57:16.013Z,1012.24
2019-05-07T11:58:16.022Z,1012.23
2019-05-07T12:00:08.948Z,1012.26
2019-05-07T12:01:08.958Z,1012.19
2019-05-07T12:03:02.258Z,1012.24
2019-05-07T12:04:02.111Z,1012.23
2019-05-07T12:05:54.823Z,1012.23
2019-05-07T12:06:54.832Z,1012.19
2019-05-07T12:08:51.830Z,1012.17
2019-05-07T12:09:47.769Z,1012.16
2019-05-07T12:11:42.600Z,1012.17
2019-05-07T12:12:40.701Z,1012.12
2019-05-07T12:14:35.010Z,1012.10
2019-05-07T12:15:33.637Z,1012.07
2019-05-07T12:17:26.553Z,1012.06
2019-05-07T12:18:26.582Z,1012.02
2019-05-07T12:20:21.715Z,1012.00
2019-05-07T12:21:23.539Z,1011.98
2019-05-07T12:23:12.417Z,1011.94
2019-05-07T12:24:14.579Z,1011.92
2019-05-07T12:26:05.352Z,1011.95
2019-05-07T12:27:05.360Z,1011.88
2019-05-07T12:28:58.280Z,1011.85
2019-05-07T12:29:58.289Z,1011.89
2019-05-07T12:31:52.358Z,1011.92
2019-05-07T12:32:52.015Z,1011.87
2019-05-07T12:34:44.135Z,1011.81
2019-05-07T12:35:44.151Z,1011.87
2019-05-07T12:37:37.059Z,1011.82
2019-05-07T12:38:37.074Z,1011.81
2019-05-07T12:40:30.019Z,1011.86
2019-05-07T12:41:30.039Z,1011.88
2019-05-07T12:43:22.996Z,1011.79
2019-05-07T12:44:22.958Z,1011.78
2019-05-07T12:46:16.553Z,1011.77
2019-05-07T12:47:16.078Z,1011.72
2019-05-07T12:49:08.809Z,1011.72
2019-05-07T12:50:08.818Z,1011.68
2019-05-07T12:52:02.271Z,1011.68
2019-05-07T12:53:02.211Z,1011.69
2019-05-07T12:54:54.672Z,1011.66
2019-05-07T12:55:54.676Z,1011.63
2019-05-07T12:57:47.666Z,1011.63
2019-05-07T12:58:47.682Z,1011.57
2019-05-07T13:00:42.503Z,1011.52
2019-05-07T13:01:42.210Z,1011.51
2019-05-07T13:03:33.532Z,1011.45
2019-05-07T13:04:33.548Z,1011.48
2019-05-07T13:06:26.718Z,1011.46
2019-05-07T13:07:26.474Z,1011.45
2019-05-07T13:09:19.419Z,1011.44
2019-05-07T13:10:19.404Z,1011.44
2019-05-07T13:12:12.321Z,1011.41
2019-05-07T13:13:12.439Z,1011.46
2019-05-07T13:15:05.253Z,1011.46
2019-05-07T13:16:05.260Z,1011.44
2019-05-07T13:17:58.173Z,1011.44
2019-05-07T13:18:58.188Z,1011.39
2019-05-07T13:20:51.911Z,1011.38
2019-05-07T13:21:51.116Z,1011.34
2019-05-07T13:23:44.028Z,1011.36
2019-05-07T13:24:44.041Z,1011.30
2019-05-07T13:26:36.966Z,1011.33
2019-05-07T13:27:39.920Z,1011.33
2019-05-07T13:29:29.880Z,1011.30
2019-05-07T13:30:29.895Z,1011.28
2019-05-07T13:32:22.810Z,1011.24
2019-05-07T13:33:22.948Z,1011.22
2019-05-07T13:35:15.737Z,1011.24
2019-05-07T13:36:15.751Z,1011.24
2019-05-07T13:38:08.662Z,1011.22
2019-05-07T13:39:08.676Z,1011.21
2019-05-07T13:41:02.170Z,1011.19
2019-05-07T13:42:02.100Z,1011.18
2019-05-07T13:43:54.514Z,1011.16
2019-05-07T13:44:54.528Z,1011.14
2019-05-07T13:46:47.445Z,1011.18
2019-05-07T13:47:47.453Z,1011.19
2019-05-07T13:49:42.681Z,1011.15
2019-05-07T13:50:41.993Z,1011.13
2019-05-07T13:52:33.304Z,1011.13
2019-05-07T13:53:33.313Z,1011.16
2019-05-07T13:55:26.228Z,1011.00
2019-05-07T13:56:26.237Z,1011.11
2019-05-07T13:58:19.172Z,1011.09
2019-05-07T13:59:19.183Z,1011.13
2019-05-07T14:01:12.196Z,1011.09
2019-05-07T14:02:15.176Z,1011.11
2019-05-07T14:04:05.025Z,1011.05
2019-05-07T14:05:05.044Z,1011.06
2019-05-07T14:06:57.961Z,1011.05
2019-05-07T14:07:57.970Z,1011.07
2019-05-07T14:09:52.719Z,1011.01
2019-05-07T14:10:52.039Z,1011.10
2019-05-07T14:12:43.820Z,1011.07
2019-05-07T14:13:43.828Z,1011.06
2019-05-07T14:15:36.766Z,1011.01
2019-05-07T14:16:36.759Z,1011.00
2019-05-07T14:18:29.673Z,1011.00
2019-05-07T14:19:29.689Z,1011.02
2019-05-07T14:21:22.609Z,1010.99
2019-05-07T14:22:22.841Z,1010.99
2019-05-07T14:24:15.525Z,1010.97
2019-05-07T14:25:15.540Z,1010.99
2019-05-07T14:27:08.461Z,1010.94
2019-05-07T14:28:08.468Z,1010.96
2019-05-07T14:30:02.661Z,1010.93
2019-05-07T14:31:01.855Z,1010.94
2019-05-07T14:32:54.314Z,1010.92
2019-05-07T14:33:54.321Z,1010.93
2019-05-07T14:35:47.271Z,1010.90
2019-05-07T14:36:47.265Z,1010.92
2019-05-07T14:38:42.491Z,1010.90
2019-05-07T14:39:42.417Z,1010.91
2019-05-07T14:41:33.239Z,1010.88
2019-05-07T14:42:33.118Z,1010.91
2019-05-07T14:44:26.617Z,1010.88
2019-05-07T14:45:26.632Z,1010.92
2019-05-07T14:47:19.549Z,1010.88
2019-05-07T14:48:19.557Z,1010.85
2019-05-07T14:50:12.550Z,1010.83
2019-05-07T14:51:12.741Z,1010.81
2019-05-07T14:53:05.432Z,1010.80
2019-05-07T14:54:05.418Z,1010.82
2019-05-07T14:55:58.332Z,1010.79
2019-05-07T14:56:58.346Z,1010.81
2019-05-07T14:58:51.676Z,1010.72
2019-05-07T14:59:52.392Z,1010.72
2019-05-07T15:01:44.201Z,1010.69
2019-05-07T15:02:44.204Z,1010.67
2019-05-07T15:04:37.130Z,1010.65
2019-05-07T15:05:37.133Z,1010.65
2019-05-07T15:07:30.057Z,1010.63
2019-05-07T15:08:32.154Z,1010.62
2019-05-07T15:10:22.976Z,1010.60
2019-05-07T15:11:22.992Z,1010.61
2019-05-07T15:13:15.908Z,1010.55
2019-05-07T15:14:15.918Z,1010.55
2019-05-07T15:16:08.836Z,1010.59
2019-05-07T15:17:08.850Z,1010.62
2019-05-07T15:19:01.769Z,1010.66
2019-05-07T15:20:02.786Z,1010.66
2019-05-07T15:21:54.699Z,1010.62
2019-05-07T15:22:54.706Z,1010.64
2019-05-07T15:24:47.626Z,1010.65
2019-05-07T15:25:47.658Z,1010.67
2019-05-07T15:27:42.107Z,1010.63
2019-05-07T15:28:41.774Z,1010.59
2019-05-07T15:30:33.487Z,1010.65
2019-05-07T15:31:33.500Z,1010.72
2019-05-07T15:33:26.422Z,1010.69
2019-05-07T15:34:26.429Z,1010.72
2019-05-07T15:36:19.342Z,1010.79
2019-05-07T15:37:19.352Z,1010.78
2019-05-07T15:39:13.411Z,1010.70
2019-05-07T15:40:12.272Z,1010.70
2019-05-07T15:42:05.200Z,1010.68
2019-05-07T15:43:05.204Z,1010.65
2019-05-07T15:44:58.118Z,1010.60
2019-05-07T15:45:58.129Z,1010.60
2019-05-07T15:47:51.047Z,1010.54
2019-05-07T15:48:52.609Z,1010.58
2019-05-07T15:50:43.978Z,1010.58
2019-05-07T15:51:43.981Z,1010.56
2019-05-07T15:53:36.920Z,1010.52
2019-05-07T15:54:36.903Z,1010.53
2019-05-07T15:56:29.810Z,1010.50
2019-05-07T15:57:29.824Z,1010.48
2019-05-07T15:59:22.742Z,1010.44
2019-05-07T16:00:22.746Z,1010.44
2019-05-07T16:02:15.665Z,1010.41
2019-05-07T16:03:15.672Z,1010.41
2019-05-07T16:05:08.581Z,1010.38
2019-05-07T16:06:08.592Z,1010.39
2019-05-07T16:08:01.666Z,1010.35
2019-05-07T16:09:04.133Z,1010.37
2019-05-07T16:10:54.424Z,1010.37
2019-05-07T16:11:54.436Z,1010.35
2019-05-07T16:13:47.355Z,1010.31
2019-05-07T16:14:47.361Z,1010.32
2019-05-07T16:16:42.716Z,1010.26
2019-05-07T16:17:40.278Z,1010.30
2019-05-07T16:19:33.199Z,1010.27
2019-05-07T16:20:33.206Z,1010.25
2019-05-07T16:22:26.130Z,1010.26
2019-05-07T16:23:26.138Z,1010.24
2019-05-07T16:25:19.041Z,1010.22
2019-05-07T16:26:19.056Z,1010.22
2019-05-07T16:28:12.812Z,1010.20
2019-05-07T16:29:13.272Z,1010.20
2019-05-07T16:31:04.922Z,1010.20
2019-05-07T16:32:04.905Z,1010.11
2019-05-07T16:33:57.823Z,1010.10
2019-05-07T16:34:57.829Z,1010.10
2019-05-07T16:36:50.740Z,1010.13
2019-05-07T16:37:52.190Z,1010.05
2019-05-07T16:39:43.670Z,1010.05
2019-05-07T16:40:43.677Z,1010.04
2019-05-07T16:42:38.122Z,1010.07
2019-05-07T16:43:36.601Z,1009.99
2019-05-07T16:45:29.512Z,1009.99
2019-05-07T16:46:29.553Z,1009.96
2019-05-07T16:48:23.289Z,1009.95
2019-05-07T16:49:22.465Z,1009.93
2019-05-07T16:51:15.372Z,1009.93
2019-05-07T16:52:15.377Z,1009.91
2019-05-07T16:54:08.294Z,1009.93
2019-05-07T16:55:08.300Z,1009.92
2019-05-07T16:57:03.152Z,1009.90
2019-05-07T16:58:01.893Z,1009.87
2019-05-07T16:59:54.139Z,1009.90
2019-05-07T17:00:54.150Z,1009.89
2019-05-07T17:02:47.063Z,1009.86
2019-05-07T17:03:47.072Z,1009.88
2019-05-07T17:05:39.981Z,1009.85
2019-05-07T17:06:42.120Z,1009.85
2019-05-07T17:08:32.913Z,1009.81
2019-05-07T17:09:35.250Z,1009.84
2019-05-07T17:11:25.828Z,1009.82
2019-05-07T17:12:25.840Z,1009.80
2019-05-07T17:14:18.756Z,1009.77
2019-05-07T17:15:18.765Z,1009.78
2019-05-07T17:17:12.070Z,1009.75
2019-05-07T17:18:11.834Z,1009.72
2019-05-07T17:20:04.627Z,1009.67
2019-05-07T17:21:04.617Z,1009.69
2019-05-07T17:22:57.536Z,1009.66
2019-05-07T17:23:57.540Z,1009.69
2019-05-07T17:25:52.461Z,1009.67